Time;durP1;ratioP1;P1;durP2;ratioP2;P2;SDS_P1;SDS_P2;PMS_P1;PMS_P2;Temp;Humidity;BMP_temperature;BMP_pressure;BME280_temperature;BME280_humidity;BME280_pressure;Samples;Min_cycle;Max_cycle;Signal;HPM_P1;HPM_P2
2021/01/26 00:00:51;;;;;;;7.47;5.85;;;0.30;99.90;;;;;;5071145;28;20174;-78
2021/01/26 00:03:17;;;;;;;7.72;6.38;;;0.20;99.90;;;;;;5075258;28;20251;-77
2021/01/26 00:05:43;;;;;;;9.63;6.90;;;0.20;99.90;;;;;;5068803;28;20587;-77
2021/01/26 00:08:09;;;;;;;9.80;5.57;;;0.10;99.90;;;;;;5072857;28;20218;-77
2021/01/26 00:10:35;;;;;;;8.25;6.47;;;0.10;99.90;;;;;;5072847;28;20772;-77
2021/01/26 00:13:01;;;;;;;11.02;6.70;;;0.00;99.90;;;;;;5073037;28;20591;-77
2021/01/26 00:15:27;;;;;;;8.10;6.25;;;0.00;99.90;;;;;;5067822;28;20178;-78
2021/01/26 00:17:53;;;;;;;10.40;6.70;;;0.00;99.90;;;;;;5069278;28;20189;-78
2021/01/26 00:20:19;;;;;;;7.70;6.00;;;0.00;99.90;;;;;;5067620;28;20662;-77
2021/01/26 00:22:45;;;;;;;9.23;5.53;;;-0.10;99.90;;;;;;5072597;28;20188;-77
2021/01/26 00:25:15;;;;;;;6.70;5.85;;;-0.10;99.90;;;;;;5068792;28;20182;-78
2021/01/26 00:27:40;;;;;;;8.60;5.20;;;-0.10;99.90;;;;;;5072132;28;20623;-77
2021/01/26 00:30:09;;;;;;;7.50;6.40;;;-0.20;99.90;;;;;;5068020;28;20197;-78
2021/01/26 00:32:34;;;;;;;10.43;6.10;;;-0.20;99.90;;;;;;5070325;28;20182;-77
2021/01/26 00:35:00;;;;;;;9.00;5.83;;;-0.20;99.90;;;;;;5070075;28;20227;-78
2021/01/26 00:37:26;;;;;;;10.27;7.70;;;-0.30;99.90;;;;;;5069519;28;20193;-77
2021/01/26 00:39:51;;;;;;;6.23;5.63;;;-0.30;99.90;;;;;;5072252;28;20194;-78
2021/01/26 00:42:17;;;;;;;6.40;5.37;;;-0.30;99.90;;;;;;5069624;28;20635;-77
2021/01/26 00:44:42;;;;;;;8.33;5.43;;;-0.40;99.90;;;;;;5067110;28;20220;-77
2021/01/26 00:47:08;;;;;;;9.63;6.93;;;-0.40;99.90;;;;;;5071444;28;20669;-77
2021/01/26 00:49:33;;;;;;;7.00;5.87;;;-0.40;99.90;;;;;;5073079;28;20215;-77
2021/01/26 00:51:59;;;;;;;6.90;5.40;;;-0.50;99.90;;;;;;5071886;28;20642;-77
2021/01/26 00:54:24;;;;;;;8.83;5.93;;;-0.50;99.90;;;;;;5071300;28;20197;-77
2021/01/26 00:56:50;;;;;;;7.37;5.67;;;-0.50;99.90;;;;;;5069869;28;20221;-77
2021/01/26 00:59:15;;;;;;;8.23;5.50;;;-0.50;99.90;;;;;;5071368;28;20189;-77
2021/01/26 01:01:41;;;;;;;8.13;6.20;;;-0.50;99.90;;;;;;5068842;28;20256;-78
2021/01/26 01:04:06;;;;;;;8.00;6.00;;;-0.50;99.90;;;;;;5072037;28;20236;-78
2021/01/26 01:06:32;;;;;;;7.70;5.67;;;-0.60;99.90;;;;;;5071922;28;20217;-77
2021/01/26 01:08:57;;;;;;;8.27;6.67;;;-0.60;99.90;;;;;;5070235;28;20217;-78
2021/01/26 01:11:23;;;;;;;7.13;5.13;;;-0.60;99.90;;;;;;5071856;28;20261;-78
2021/01/26 01:13:48;;;;;;;8.60;6.13;;;-0.60;99.90;;;;;;5063220;28;20205;-77
2021/01/26 01:16:15;;;;;;;7.27;5.03;;;-0.60;99.90;;;;;;5068788;28;20182;-77
2021/01/26 01:18:40;;;;;;;7.63;5.95;;;-0.60;99.90;;;;;;5066592;28;20252;-77
2021/01/26 01:21:06;;;;;;;7.80;6.40;;;-0.60;99.90;;;;;;5069237;28;20213;-77
2021/01/26 01:23:31;;;;;;;6.33;5.10;;;-0.60;99.90;;;;;;5071682;28;20204;-77
2021/01/26 01:25:59;;;;;;;5.70;4.70;;;-0.60;99.90;;;;;;5067435;28;20604;-78
2021/01/26 01:28:26;;;;;;;9.70;6.20;;;-0.60;99.90;;;;;;5071827;28;20573;-77
2021/01/26 01:30:55;;;;;;;9.55;5.15;;;-0.60;99.90;;;;;;5068226;28;20202;-77
2021/01/26 01:33:21;;;;;;;7.03;5.20;;;-0.70;99.90;;;;;;5068271;28;20189;-77
2021/01/26 01:35:47;;;;;;;7.63;5.97;;;-0.70;99.90;;;;;;5067495;28;20543;-78
2021/01/26 01:38:13;;;;;;;9.67;5.97;;;-0.70;99.90;;;;;;5080080;28;20432;-78
2021/01/26 01:40:38;;;;;;;9.23;5.93;;;-0.70;99.90;;;;;;5075909;28;20767;-77
2021/01/26 01:43:04;;;;;;;8.57;6.40;;;-0.60;99.90;;;;;;5071830;28;20182;-77
2021/01/26 01:45:29;;;;;;;6.40;5.50;;;-0.60;99.90;;;;;;5073295;28;20177;-77
2021/01/26 01:48:00;;;;;;;9.40;6.97;;;-0.60;99.90;;;;;;5074134;28;20263;-77
2021/01/26 01:50:36;;;;;;;6.95;5.18;;;-0.60;99.90;;;;;;5073869;28;20185;-77
2021/01/26 01:53:10;;;;;;;8.88;6.75;;;-0.60;99.90;;;;;;5072010;28;20178;-77
2021/01/26 01:55:39;;;;;;;6.40;4.97;;;-0.60;99.90;;;;;;5074613;28;20239;-77
2021/01/26 01:58:15;;;;;;;8.60;5.95;;;-0.50;99.90;;;;;;5074433;28;20196;-77
2021/01/26 02:00:42;;;;;;;7.05;6.35;;;-0.50;99.90;;;;;;5070600;28;20186;-78
2021/01/26 02:03:29;;;;;;;7.07;6.00;;;-0.50;99.90;;;;;;5075062;28;20197;-77
2021/01/26 02:05:58;;;;;;;11.65;6.18;;;-0.50;99.90;;;;;;5070362;28;20216;-78
2021/01/26 02:09:00;;;;;;;9.65;5.70;;;-0.40;99.90;;;;;;5075229;28;20237;-77
2021/01/26 02:11:26;;;;;;;5.25;4.65;;;-0.40;99.90;;;;;;5063698;28;20177;-77
2021/01/26 02:13:52;;;;;;;8.23;5.83;;;-0.30;99.90;;;;;;5075202;28;20188;-77
2021/01/26 02:16:36;;;;;;;9.18;6.20;;;-0.30;99.90;;;;;;5071762;28;20217;-77
2021/01/26 02:19:32;;;;;;;8.70;5.90;;;-0.30;99.90;;;;;;5072419;28;20185;-78
2021/01/26 02:22:28;;;;;;;5.75;5.15;;;-0.30;99.90;;;;;;5072339;28;20186;-78
2021/01/26 02:25:14;;;;;;;11.20;6.35;;;-0.30;99.90;;;;;;5069879;28;20561;-77
2021/01/26 02:28:13;;;;;;;5.97;4.63;;;-0.30;99.90;;;;;;5069496;28;20205;-77
2021/01/26 02:31:05;;;;;;;13.13;6.75;;;-0.40;99.90;;;;;;5063968;28;20269;-77
2021/01/26 02:34:08;;;;;;;7.32;5.60;;;-0.40;99.90;;;;;;5065244;28;20191;-77
2021/01/26 02:37:00;;;;;;;11.07;6.32;;;-0.40;99.90;;;;;;5069846;28;20177;-77
2021/01/26 02:39:50;;;;;;;9.13;5.78;;;-0.40;99.90;;;;;;5055554;28;20236;-78
2021/01/26 02:42:16;;;;;;;8.50;5.80;;;-0.40;99.90;;;;;;5074372;28;20265;-77
2021/01/26 02:44:58;;;;;;;7.37;5.97;;;-0.40;99.90;;;;;;5069622;28;20264;-77
2021/01/26 02:47:42;;;;;;;6.57;5.82;;;-0.40;99.90;;;;;;5071784;28;20268;-77
2021/01/26 02:50:13;;;;;;;7.22;4.63;;;-0.40;99.90;;;;;;5070752;28;20296;-76
2021/01/26 02:52:57;;;;;;;8.63;5.55;;;-0.40;99.90;;;;;;5068761;28;20181;-77
2021/01/26 02:55:33;;;;;;;8.75;5.25;;;-0.30;99.90;;;;;;5072909;28;20247;-77
2021/01/26 02:58:23;;;;;;;9.98;6.22;;;-0.30;99.90;;;;;;5072724;28;20216;-77
2021/01/26 03:00:54;;;;;;;8.10;4.85;;;-0.20;99.90;;;;;;5068896;28;20232;-78
2021/01/26 03:03:29;;;;;;;8.88;5.90;;;-0.20;99.90;;;;;;5073568;28;20193;-77
2021/01/26 03:06:00;;;;;;;9.07;6.03;;;-0.10;99.90;;;;;;5072041;28;20182;-78
2021/01/26 03:08:31;;;;;;;7.85;4.85;;;-0.10;99.90;;;;;;5074219;28;20194;-77
2021/01/26 03:11:07;;;;;;;6.93;5.43;;;-0.10;99.90;;;;;;5073849;28;20193;-78
2021/01/26 03:13:35;;;;;;;6.72;6.00;;;0.00;99.90;;;;;;5067970;28;20178;-77
2021/01/26 03:16:12;;;;;;;9.45;6.65;;;0.00;99.90;;;;;;5073711;28;20232;-77
2021/01/26 03:18:49;;;;;;;10.60;7.22;;;0.00;99.90;;;;;;5073123;28;20282;-77
2021/01/26 03:21:18;;;;;;;8.35;6.50;;;0.00;99.90;;;;;;5072695;28;20517;-78
2021/01/26 03:24:07;;;;;;;9.65;7.07;;;0.00;99.90;;;;;;5066169;28;20201;-78
2021/01/26 03:26:34;;;;;;;10.80;6.60;;;0.00;99.90;;;;;;5071759;28;20545;-77
2021/01/26 03:29:05;;;;;;;11.57;6.38;;;0.00;99.90;;;;;;5073871;28;20178;-77
2021/01/26 03:31:37;;;;;;;9.05;6.55;;;0.00;99.90;;;;;;5071980;28;20216;-77
2021/01/26 03:34:03;;;;;;;10.38;6.80;;;0.00;99.90;;;;;;5067009;28;20189;-77
2021/01/26 03:36:28;;;;;;;10.80;6.87;;;0.00;99.90;;;;;;5070367;28;20190;-77
2021/01/26 03:38:55;;;;;;;9.63;5.93;;;0.00;99.90;;;;;;5073139;28;20229;-77
2021/01/26 03:41:21;;;;;;;9.30;6.47;;;-0.10;99.90;;;;;;5069725;28;20285;-77
2021/01/26 03:43:48;;;;;;;10.40;7.47;;;-0.10;99.90;;;;;;5071266;28;20190;-77
2021/01/26 03:46:48;;;;;;;10.25;6.85;;;-0.10;99.90;;;;;;5068744;28;20189;-78
2021/01/26 03:49:37;;;;;;;11.95;7.43;;;-0.20;99.90;;;;;;5066637;28;20186;-77
2021/01/26 03:52:19;;;;;;;10.73;6.90;;;-0.20;99.90;;;;;;5072659;28;20178;-77
2021/01/26 03:54:50;;;;;;;12.63;7.00;;;-0.30;99.90;;;;;;5076346;28;20177;-77
2021/01/26 03:57:37;;;;;;;9.38;6.53;;;-0.30;99.90;;;;;;5066987;28;20225;-78
2021/01/26 04:00:06;;;;;;;10.80;6.90;;;-0.40;99.90;;;;;;5069227;28;20324;-77
2021/01/26 04:03:01;;;;;;;12.90;8.52;;;-0.40;99.90;;;;;;5075767;28;20304;-77
2021/01/26 04:05:29;;;;;;;10.68;7.22;;;-0.40;99.90;;;;;;5061116;28;20202;-77
2021/01/26 04:08:16;;;;;;;11.85;7.75;;;-0.40;99.90;;;;;;5071198;28;20654;-77
2021/01/26 04:10:49;;;;;;;12.77;8.15;;;-0.40;99.90;;;;;;5070892;28;20195;-78
2021/01/26 04:13:21;;;;;;;11.48;7.60;;;-0.40;99.90;;;;;;5068748;28;20181;-77
2021/01/26 04:15:53;;;;;;;8.88;6.43;;;-0.50;99.90;;;;;;5071740;28;20280;-78
2021/01/26 04:18:26;;;;;;;9.85;7.35;;;-0.40;99.90;;;;;;5072880;28;20221;-77
2021/01/26 04:20:53;;;;;;;9.27;7.15;;;-0.40;99.90;;;;;;5077686;28;20174;-77
2021/01/26 04:23:20;;;;;;;10.93;6.18;;;-0.40;99.90;;;;;;5076177;28;20182;-77
2021/01/26 04:25:48;;;;;;;10.77;7.38;;;-0.40;99.90;;;;;;5072700;28;20178;-78
2021/01/26 04:28:16;;;;;;;12.45;7.93;;;-0.30;99.90;;;;;;5068376;28;20204;-77
2021/01/26 04:30:42;;;;;;;11.52;7.93;;;-0.20;99.90;;;;;;5069134;28;20270;-77
2021/01/26 04:33:14;;;;;;;14.03;8.40;;;-0.20;99.90;;;;;;5067809;28;20272;-77
2021/01/26 04:35:40;;;;;;;14.90;7.50;;;-0.10;99.90;;;;;;5067826;28;20429;-77
2021/01/26 04:38:06;;;;;;;12.45;6.97;;;-0.10;99.90;;;;;;5072030;28;20624;-77
2021/01/26 04:40:33;;;;;;;14.37;8.67;;;-0.10;99.90;;;;;;5072260;28;20181;-78
2021/01/26 04:43:15;;;;;;;13.20;7.70;;;-0.10;99.90;;;;;;5071252;28;20443;-77
2021/01/26 04:46:04;;;;;;;16.33;8.30;;;0.00;99.90;;;;;;5063653;28;20231;-77
2021/01/26 04:48:37;;;;;;;9.80;5.97;;;0.00;99.90;;;;;;5071805;28;20264;-77
2021/01/26 04:51:16;;;;;;;12.07;7.80;;;0.00;99.90;;;;;;5072138;28;20208;-77
2021/01/26 04:53:57;;;;;;;9.73;5.90;;;0.10;99.90;;;;;;5072096;28;20186;-77
2021/01/26 04:56:46;;;;;;;9.18;6.40;;;0.10;99.90;;;;;;5066658;28;20637;-77
2021/01/26 04:59:20;;;;;;;9.20;6.20;;;0.20;99.90;;;;;;5069100;28;20233;-77
2021/01/26 05:02:08;;;;;;;11.13;6.63;;;0.20;99.90;;;;;;5071097;28;20217;-77
2021/01/26 05:04:59;;;;;;;9.80;6.38;;;0.20;99.90;;;;;;5065294;28;20265;-77
2021/01/26 05:07:35;;;;;;;12.45;7.13;;;0.20;99.90;;;;;;5067510;28;20204;-77
2021/01/26 05:10:09;;;;;;;10.05;7.07;;;0.30;99.90;;;;;;5070193;28;20687;-79
2021/01/26 05:13:02;;;;;;;12.75;7.45;;;0.20;99.90;;;;;;5067123;28;20248;-77
2021/01/26 05:15:32;;;;;;;9.25;6.70;;;0.30;99.90;;;;;;5067585;28;20247;-77
2021/01/26 05:18:05;;;;;;;8.88;7.53;;;0.30;99.90;;;;;;5068416;28;20699;-77
2021/01/26 05:20:38;;;;;;;6.80;5.93;;;0.30;99.90;;;;;;5070737;28;20247;-77
2021/01/26 05:23:12;;;;;;;10.05;6.65;;;0.30;99.90;;;;;;5071049;28;20185;-78
2021/01/26 05:25:38;;;;;;;11.25;7.03;;;0.30;99.90;;;;;;5070443;28;20696;-77
2021/01/26 05:28:03;;;;;;;12.53;7.17;;;0.40;99.90;;;;;;5068524;28;20193;-77
2021/01/26 05:30:34;;;;;;;8.03;6.23;;;0.40;99.90;;;;;;5069621;28;20255;-77
2021/01/26 05:33:04;;;;;;;8.98;7.13;;;0.40;99.90;;;;;;5062661;28;20183;-78
2021/01/26 05:35:30;;;;;;;7.70;6.22;;;0.40;99.90;;;;;;5070755;28;20205;-77
2021/01/26 05:37:55;;;;;;;9.90;6.80;;;0.40;99.90;;;;;;5074625;28;20245;-77
2021/01/26 05:40:26;;;;;;;9.87;5.73;;;0.40;99.90;;;;;;5071775;28;20445;-77
2021/01/26 05:43:00;;;;;;;10.70;6.00;;;0.40;99.90;;;;;;5071849;28;20186;-77
2021/01/26 05:45:34;;;;;;;11.25;6.70;;;0.40;99.90;;;;;;5070513;28;20179;-77
2021/01/26 05:48:03;;;;;;;8.10;6.55;;;0.40;99.90;;;;;;5076564;28;20182;-78
2021/01/26 05:50:30;;;;;;;10.48;7.03;;;0.40;99.90;;;;;;5070976;28;20227;-77
2021/01/26 05:53:04;;;;;;;6.70;5.28;;;0.40;99.90;;;;;;5070999;28;20182;-78
2021/01/26 05:55:32;;;;;;;9.40;6.35;;;0.40;99.90;;;;;;5069799;28;20538;-77
2021/01/26 05:58:10;;;;;;;7.50;5.57;;;0.50;99.90;;;;;;5063508;28;20249;-78
2021/01/26 06:00:36;;;;;;;10.30;6.75;;;0.50;99.90;;;;;;5068149;28;20397;-77
2021/01/26 06:03:17;;;;;;;7.93;5.35;;;0.50;99.90;;;;;;5077680;28;20700;-77
2021/01/26 06:06:05;;;;;;;6.68;5.22;;;0.50;99.90;;;;;;5070524;28;20189;-78
2021/01/26 06:08:32;;;;;;;7.72;5.43;;;0.50;99.90;;;;;;5065823;28;20186;-77
2021/01/26 06:10:59;;;;;;;8.63;5.93;;;0.50;99.90;;;;;;5071211;28;20581;-82
2021/01/26 06:13:30;;;;;;;7.45;5.28;;;0.50;99.90;;;;;;5066516;28;20190;-76
2021/01/26 06:16:14;;;;;;;9.50;6.55;;;0.50;99.90;;;;;;5071245;28;20556;-77
2021/01/26 06:18:57;;;;;;;10.93;6.80;;;0.50;99.90;;;;;;5063684;28;20651;-76
2021/01/26 06:21:24;;;;;;;11.57;5.80;;;0.50;99.90;;;;;;5068576;28;20182;-76
2021/01/26 06:23:49;;;;;;;10.68;6.18;;;0.50;99.90;;;;;;5071515;28;20185;-76
2021/01/26 06:26:15;;;;;;;12.80;6.40;;;0.50;99.90;;;;;;5069843;28;20190;-77
2021/01/26 06:29:28;;;;;;;7.93;5.90;;;0.50;99.90;;;;;;5065826;28;20178;-77
2021/01/26 06:32:12;;;;;;;8.20;5.35;;;0.50;99.90;;;;;;5048066;28;20230;-77
2021/01/26 06:34:52;;;;;;;13.40;8.10;;;0.60;99.90;;;;;;5073133;28;20185;-77
2021/01/26 06:37:44;;;;;;;8.68;6.88;;;0.50;99.90;;;;;;5073297;28;20624;-77
2021/01/26 06:40:15;;;;;;;8.52;5.40;;;0.50;99.90;;;;;;5068079;28;20240;-77
2021/01/26 06:43:01;;;;;;;9.60;6.10;;;0.50;99.90;;;;;;5073991;28;20189;-76
2021/01/26 06:46:09;;;;;;;10.70;5.50;;;0.50;99.90;;;;;;5072469;28;20186;-76
2021/01/26 06:49:02;;;;;;;8.27;5.18;;;0.50;99.90;;;;;;5095646;28;20182;-77
2021/01/26 06:51:30;;;;;;;7.85;5.32;;;0.50;99.90;;;;;;5063857;28;20180;-76
2021/01/26 06:54:25;;;;;;;7.88;6.15;;;0.50;99.90;;;;;;5073512;28;20186;-76
2021/01/26 06:57:10;;;;;;;11.35;5.82;;;0.50;99.90;;;;;;5071309;28;20174;-77
2021/01/26 06:59:57;;;;;;;5.45;4.95;;;0.50;99.90;;;;;;5069430;28;20182;-77
2021/01/26 07:02:51;;;;;;;6.15;4.95;;;0.60;99.90;;;;;;5066967;28;20627;-77
2021/01/26 07:05:25;;;;;;;6.28;4.35;;;0.60;99.90;;;;;;5063157;28;20197;-78
2021/01/26 07:08:25;;;;;;;6.45;4.82;;;0.60;99.90;;;;;;5078002;28;20192;-77
2021/01/26 07:11:14;;;;;;;7.03;4.78;;;0.60;99.90;;;;;;5068036;28;20178;-77
2021/01/26 07:13:59;;;;;;;7.25;4.90;;;0.70;99.90;;;;;;5070828;28;20247;-77
2021/01/26 07:16:47;;;;;;;7.65;5.53;;;0.70;99.90;;;;;;5068435;28;20540;-82
2021/01/26 07:19:13;;;;;;;10.00;5.35;;;0.70;99.90;;;;;;5065815;28;20202;-77
2021/01/26 07:22:02;;;;;;;5.40;4.27;;;0.70;99.90;;;;;;5071132;28;20185;-77
2021/01/26 07:24:52;;;;;;;13.10;8.07;;;0.80;99.90;;;;;;5069570;28;20182;-77
2021/01/26 07:27:51;;;;;;;6.25;5.55;;;0.70;99.90;;;;;;5066727;28;20194;-77
2021/01/26 07:30:25;;;;;;;6.00;4.60;;;0.80;99.90;;;;;;5071777;28;20281;-76
2021/01/26 07:33:15;;;;;;;9.43;5.53;;;0.80;99.90;;;;;;5072486;28;20177;-77
2021/01/26 07:35:59;;;;;;;5.78;4.75;;;0.80;99.90;;;;;;5065481;28;20178;-77
2021/01/26 07:38:48;;;;;;;6.18;5.13;;;0.90;99.90;;;;;;5072386;28;20217;-77
2021/01/26 07:41:32;;;;;;;6.43;4.22;;;0.90;99.90;;;;;;5067527;28;20186;-77
2021/01/26 07:44:10;;;;;;;5.97;5.43;;;1.00;99.90;;;;;;5072925;28;20186;-77
2021/01/26 07:46:44;;;;;;;8.85;5.65;;;1.00;99.90;;;;;;5073606;28;20521;-77
2021/01/26 07:49:35;;;;;;;9.73;4.60;;;1.00;99.90;;;;;;5066176;28;20186;-77
2021/01/26 07:52:03;;;;;;;7.88;4.35;;;1.10;99.90;;;;;;5073195;28;20605;-77
2021/01/26 07:54:36;;;;;;;10.45;4.72;;;1.10;99.90;;;;;;5073610;28;20185;-77
2021/01/26 07:57:04;;;;;;;8.23;4.93;;;1.20;99.90;;;;;;5073025;28;20239;-77
2021/01/26 07:59:35;;;;;;;8.02;5.03;;;1.20;99.90;;;;;;5073320;28;20239;-77
2021/01/26 08:02:04;;;;;;;5.57;4.18;;;1.30;99.90;;;;;;5072621;28;20295;-77
2021/01/26 08:04:39;;;;;;;7.78;4.90;;;1.30;99.90;;;;;;5072126;28;20739;-77
2021/01/26 08:07:06;;;;;;;8.93;4.60;;;1.40;99.90;;;;;;5073134;28;20178;-77
2021/01/26 08:09:44;;;;;;;6.90;4.40;;;1.40;99.90;;;;;;5073337;28;20174;-77
2021/01/26 08:12:14;;;;;;;5.78;4.57;;;1.50;99.90;;;;;;5072674;28;20186;-77
2021/01/26 08:14:49;;;;;;;5.25;4.25;;;1.50;99.90;;;;;;5072917;28;20189;-77
2021/01/26 08:17:27;;;;;;;4.45;3.40;;;1.50;99.90;;;;;;5072769;28;20258;-77
2021/01/26 08:20:03;;;;;;;7.78;5.45;;;1.60;99.90;;;;;;5072903;28;20236;-78
2021/01/26 08:22:32;;;;;;;5.15;4.53;;;1.60;99.90;;;;;;5065914;28;20239;-77
2021/01/26 08:25:03;;;;;;;8.45;5.10;;;1.60;99.90;;;;;;5073062;28;20214;-77
2021/01/26 08:27:28;;;;;;;6.20;5.07;;;1.60;99.90;;;;;;5065209;28;20680;-77
2021/01/26 08:29:56;;;;;;;6.30;5.57;;;1.60;99.90;;;;;;5072858;28;20229;-77
2021/01/26 08:32:24;;;;;;;9.60;5.20;;;1.60;99.90;;;;;;5072608;28;20198;-78
2021/01/26 08:34:58;;;;;;;3.75;3.05;;;1.60;99.90;;;;;;5072894;28;20649;-77
2021/01/26 08:37:42;;;;;;;5.45;4.32;;;1.70;99.90;;;;;;5072479;28;20275;-77
2021/01/26 08:40:19;;;;;;;6.57;5.03;;;1.70;99.90;;;;;;5072450;28;20189;-78
2021/01/26 08:42:48;;;;;;;7.90;4.55;;;1.60;99.90;;;;;;5065941;28;20193;-77
2021/01/26 08:45:25;;;;;;;8.43;4.97;;;1.60;99.90;;;;;;5072343;28;20257;-77
2021/01/26 08:48:01;;;;;;;5.90;4.50;;;1.60;99.90;;;;;;5072482;28;20205;-77
2021/01/26 08:50:41;;;;;;;5.85;4.32;;;1.60;99.90;;;;;;5072231;28;20540;-77
2021/01/26 08:53:28;;;;;;;4.00;3.60;;;1.60;99.90;;;;;;5071913;28;20305;-78
2021/01/26 08:55:55;;;;;;;6.15;4.32;;;1.60;99.90;;;;;;5084774;28;20276;-78
2021/01/26 08:58:39;;;;;;;4.95;4.45;;;1.60;99.90;;;;;;5069404;28;20225;-77
2021/01/26 09:01:07;;;;;;;6.18;5.22;;;1.60;99.90;;;;;;5071968;28;20327;-77
2021/01/26 09:03:38;;;;;;;6.95;4.65;;;1.70;99.90;;;;;;5072172;28;20525;-77
2021/01/26 09:06:12;;;;;;;10.05;5.28;;;1.60;99.90;;;;;;5072041;28;20190;-77
2021/01/26 09:08:40;;;;;;;10.27;5.78;;;1.60;99.90;;;;;;5072161;28;20186;-77
2021/01/26 09:11:33;;;;;;;9.30;5.95;;;1.70;99.90;;;;;;5071961;28;20178;-77
2021/01/26 09:14:06;;;;;;;6.68;4.88;;;1.60;99.90;;;;;;5065561;28;20566;-78
2021/01/26 09:16:33;;;;;;;8.63;7.00;;;1.70;99.90;;;;;;5072027;28;20586;-77
2021/01/26 09:19:06;;;;;;;6.22;5.63;;;1.70;99.90;;;;;;5071549;28;20210;-78
2021/01/26 09:21:34;;;;;;;9.45;5.95;;;1.70;99.90;;;;;;5071670;28;20185;-78
2021/01/26 09:24:00;;;;;;;10.35;5.97;;;1.80;99.90;;;;;;5070982;28;20209;-77
2021/01/26 09:26:27;;;;;;;8.05;5.45;;;1.80;99.90;;;;;;5071996;28;20186;-77
2021/01/26 09:28:53;;;;;;;8.63;5.00;;;1.80;99.90;;;;;;5071633;28;20185;-77
2021/01/26 09:31:23;;;;;;;8.33;5.30;;;1.80;99.90;;;;;;5072241;28;20625;-77
2021/01/26 09:34:03;;;;;;;7.18;5.45;;;1.80;99.90;;;;;;5071874;28;20174;-77
2021/01/26 09:36:29;;;;;;;9.57;5.57;;;1.80;99.90;;;;;;5072118;28;20177;-77
2021/01/26 09:39:06;;;;;;;8.10;5.40;;;1.80;99.90;;;;;;5071659;28;20707;-77
2021/01/26 09:41:33;;;;;;;9.23;5.65;;;1.90;99.90;;;;;;5072025;28;20192;-77
2021/01/26 09:44:12;;;;;;;6.90;4.35;;;1.90;99.90;;;;;;5072116;28;20212;-78
2021/01/26 09:46:40;;;;;;;6.43;4.78;;;2.00;99.90;;;;;;5072974;28;20208;-78
2021/01/26 09:49:26;;;;;;;7.60;5.32;;;2.10;99.90;;;;;;5072798;28;20196;-77
2021/01/26 09:51:55;;;;;;;9.32;6.70;;;2.20;99.90;;;;;;5079542;28;20633;-78
2021/01/26 09:54:39;;;;;;;7.18;4.60;;;2.30;99.90;;;;;;5073307;28;20634;-78
2021/01/26 09:57:06;;;;;;;4.10;3.65;;;2.40;99.90;;;;;;5072180;28;20239;-78
2021/01/26 09:59:35;;;;;;;8.40;4.88;;;2.50;99.90;;;;;;5063923;28;20216;-77
2021/01/26 10:02:05;;;;;;;6.80;4.97;;;2.50;99.90;;;;;;5071160;28;20232;-78
2021/01/26 10:04:34;;;;;;;4.85;4.45;;;2.60;99.90;;;;;;5071897;28;20540;-78
2021/01/26 10:07:04;;;;;;;6.45;5.13;;;2.70;99.90;;;;;;5075258;28;20549;-78
2021/01/26 10:09:40;;;;;;;6.13;4.05;;;2.70;99.90;;;;;;5075700;28;20174;-78
2021/01/26 10:12:36;;;;;;;5.93;4.10;;;2.80;99.90;;;;;;5075181;28;20593;-77
2021/01/26 10:15:14;;;;;;;6.60;4.15;;;2.80;99.90;;;;;;5075165;28;20191;-78
2021/01/26 10:17:52;;;;;;;4.90;4.30;;;2.80;99.90;;;;;;5075484;28;20580;-77
2021/01/26 10:20:24;;;;;;;7.03;4.15;;;2.80;99.90;;;;;;5067896;28;20193;-78
2021/01/26 10:23:00;;;;;;;5.63;4.45;;;2.90;99.90;;;;;;5068320;28;20227;-78
2021/01/26 10:25:25;;;;;;;6.20;3.90;;;2.90;99.90;;;;;;5069002;28;20549;-78
2021/01/26 10:27:52;;;;;;;9.10;3.70;;;2.90;99.90;;;;;;5075197;28;20186;-78
2021/01/26 10:30:27;;;;;;;7.32;5.03;;;2.90;99.60;;;;;;5073690;28;20266;-79
2021/01/26 10:32:52;;;;;;;7.65;4.28;;;3.00;99.90;;;;;;5075152;28;20644;-78
2021/01/26 10:35:39;;;;;;;11.20;4.83;;;3.40;99.90;;;;;;5074873;28;20255;-78
2021/01/26 10:38:27;;;;;;;5.55;3.83;;;3.70;99.90;;;;;;5074698;28;20231;-78
2021/01/26 10:41:18;;;;;;;5.05;4.55;;;3.90;99.90;;;;;;5074849;28;20178;-78
2021/01/26 10:43:44;;;;;;;4.72;3.75;;;4.20;99.20;;;;;;5070497;28;20182;-79
2021/01/26 10:46:25;;;;;;;4.05;3.75;;;4.50;98.00;;;;;;5067785;28;20570;-78
2021/01/26 10:48:51;;;;;;;4.45;3.67;;;4.70;94.00;;;;;;5075033;28;20540;-78
2021/01/26 10:51:28;;;;;;;3.73;3.40;;;4.60;94.50;;;;;;5074517;28;20185;-78
2021/01/26 10:53:54;;;;;;;4.75;3.70;;;4.70;93.10;;;;;;5074653;28;20257;-79
2021/01/26 10:56:20;;;;;;;4.43;3.88;;;4.60;91.60;;;;;;5074439;28;20182;-78
2021/01/26 10:58:47;;;;;;;3.97;3.50;;;4.50;92.50;;;;;;5073332;28;20222;-78
2021/01/26 11:01:18;;;;;;;5.70;4.63;;;4.40;92.10;;;;;;5074127;28;20574;-78
2021/01/26 11:03:44;;;;;;;3.53;3.22;;;4.30;93.00;;;;;;5069727;28;20611;-78
2021/01/26 11:06:09;;;;;;;4.60;3.53;;;4.20;91.60;;;;;;5072052;28;20189;-78
2021/01/26 11:08:35;;;;;;;5.97;3.93;;;4.10;92.60;;;;;;5074651;28;20178;-78
2021/01/26 11:11:01;;;;;;;5.87;4.40;;;4.10;93.10;;;;;;5074450;28;20442;-78
2021/01/26 11:13:27;;;;;;;5.30;4.80;;;4.00;93.70;;;;;;5074273;28;20264;-78
2021/01/26 11:15:53;;;;;;;3.92;3.53;;;4.00;94.30;;;;;;5074130;28;20622;-78
2021/01/26 11:18:18;;;;;;;3.70;3.37;;;4.00;92.90;;;;;;5072895;28;20221;-78
2021/01/26 11:20:44;;;;;;;8.10;3.30;;;3.90;90.80;;;;;;5074256;28;20236;-77
2021/01/26 11:23:09;;;;;;;4.10;3.80;;;3.80;90.90;;;;;;5073868;28;20436;-78
2021/01/26 11:25:36;;;;;;;4.13;3.73;;;3.70;92.90;;;;;;5062924;28;20209;-78
2021/01/26 11:28:03;;;;;;;5.63;4.70;;;3.60;92.00;;;;;;5073887;28;20185;-77
2021/01/26 11:30:29;;;;;;;3.22;2.90;;;3.60;92.50;;;;;;5073894;28;20193;-78
2021/01/26 11:32:54;;;;;;;5.20;4.10;;;3.60;90.90;;;;;;5074061;28;20182;-78
2021/01/26 11:35:24;;;;;;;3.20;3.00;;;3.60;93.40;;;;;;5072283;28;20186;-78
2021/01/26 11:37:50;;;;;;;4.45;2.90;;;3.60;94.20;;;;;;5073742;28;20297;-78
2021/01/26 11:40:17;;;;;;;4.45;3.15;;;3.60;92.40;;;;;;5073605;28;20588;-78
2021/01/26 11:42:43;;;;;;;4.13;3.40;;;3.60;93.00;;;;;;5066114;28;20645;-77
2021/01/26 11:45:11;;;;;;;2.73;2.40;;;3.60;91.80;;;;;;5072443;28;20182;-77
2021/01/26 11:47:37;;;;;;;5.28;3.00;;;3.60;91.40;;;;;;5073419;28;20198;-78
2021/01/26 11:50:05;;;;;;;2.10;1.90;;;3.70;92.00;;;;;;5072083;28;20187;-77
2021/01/26 11:52:31;;;;;;;4.85;2.55;;;3.80;90.00;;;;;;5073160;28;20197;-77
2021/01/26 11:54:56;;;;;;;2.47;2.20;;;3.90;90.30;;;;;;5073483;28;20178;-78
2021/01/26 11:57:22;;;;;;;2.97;2.47;;;4.10;89.10;;;;;;5071966;28;20202;-78
2021/01/26 11:59:47;;;;;;;4.67;2.20;;;4.20;87.90;;;;;;5073199;28;20214;-78
2021/01/26 12:02:13;;;;;;;2.30;2.10;;;4.30;87.30;;;;;;5073006;28;20226;-77
2021/01/26 12:04:39;;;;;;;2.50;2.30;;;4.40;85.80;;;;;;5073249;28;20688;-78
2021/01/26 12:07:04;;;;;;;2.70;2.10;;;4.70;87.90;;;;;;5072795;28;20432;-77
2021/01/26 12:09:30;;;;;;;7.20;4.00;;;5.50;90.60;;;;;;5070588;28;20196;-81
2021/01/26 12:11:55;;;;;;;3.20;2.90;;;6.70;91.40;;;;;;5078417;28;20607;-78
2021/01/26 12:14:21;;;;;;;8.80;4.23;;;8.40;93.40;;;;;;5073236;28;20986;-78
2021/01/26 12:16:46;;;;;;;7.20;5.20;;;9.30;91.20;;;;;;5070626;28;20239;-77
2021/01/26 12:19:12;;;;;;;4.57;2.90;;;9.50;84.70;;;;;;5072439;28;20225;-76
2021/01/26 12:21:38;;;;;;;3.40;2.03;;;9.40;82.80;;;;;;5065005;28;20178;-78
2021/01/26 12:24:03;;;;;;;2.67;2.20;;;9.00;68.70;;;;;;5072811;28;20205;-77
2021/01/26 12:26:29;;;;;;;2.40;2.20;;;8.50;67.70;;;;;;5072018;28;20660;-77
2021/01/26 12:28:54;;;;;;;2.43;2.20;;;7.80;68.50;;;;;;5072446;28;20190;-78
2021/01/26 12:31:20;;;;;;;2.33;2.13;;;7.30;68.30;;;;;;5072669;28;20194;-78
2021/01/26 12:33:45;;;;;;;7.67;2.50;;;7.00;67.30;;;;;;5073582;28;20189;-78
2021/01/26 12:36:11;;;;;;;2.57;2.37;;;6.70;66.20;;;;;;5071095;28;21019;-77
2021/01/26 12:38:36;;;;;;;4.30;2.63;;;6.40;69.60;;;;;;5081535;28;20615;-77
2021/01/26 12:41:02;;;;;;;2.27;2.13;;;6.20;71.60;;;;;;5071788;28;20178;-78
2021/01/26 12:43:28;;;;;;;7.20;1.60;;;5.90;72.40;;;;;;5072682;28;20190;-77
2021/01/26 12:45:53;;;;;;;3.80;2.07;;;5.70;69.80;;;;;;5070593;28;20224;-78
2021/01/26 12:48:19;;;;;;;3.97;2.07;;;5.50;74.40;;;;;;5071191;28;20189;-77
2021/01/26 12:50:46;;;;;;;2.90;1.60;;;5.40;74.60;;;;;;5069262;28;20535;-78
2021/01/26 12:53:12;;;;;;;2.03;1.77;;;5.20;71.30;;;;;;5065322;28;20247;-77
2021/01/26 12:55:39;;;;;;;10.73;4.13;;;5.00;74.80;;;;;;5068539;28;20182;-77
2021/01/26 12:58:05;;;;;;;3.70;2.58;;;5.00;79.80;;;;;;5063878;28;20704;-78
2021/01/26 13:00:30;;;;;;;2.97;2.03;;;5.00;82.30;;;;;;5072315;28;20227;-78
2021/01/26 13:02:57;;;;;;;2.97;2.10;;;5.00;77.50;;;;;;5071342;28;20221;-78
2021/01/26 13:05:24;;;;;;;4.25;3.00;;;5.00;78.60;;;;;;5071002;28;20228;-78
2021/01/26 13:07:49;;;;;;;6.38;2.80;;;4.90;81.90;;;;;;5072097;28;20188;-78
2021/01/26 13:10:17;;;;;;;2.30;2.03;;;4.90;81.20;;;;;;5070848;28;20186;-77
2021/01/26 13:12:43;;;;;;;2.50;2.20;;;4.90;80.30;;;;;;5072031;28;20186;-77
2021/01/26 13:15:11;;;;;;;4.47;2.38;;;5.00;79.50;;;;;;5069589;28;20724;-77
2021/01/26 13:17:37;;;;;;;3.97;2.30;;;5.20;81.30;;;;;;5072006;28;20201;-77
2021/01/26 13:20:06;;;;;;;2.80;1.80;;;5.40;82.80;;;;;;5062664;28;20690;-78
2021/01/26 13:22:31;;;;;;;4.75;2.85;;;5.80;81.90;;;;;;5070614;28;20719;-78